الصفحة الرئيسية
METAR-TAF:

METAR-TAF

مطار :

مطار نيكولا تسلا في بلغراد

بلغراد, صربيا

دائرة عرض: 44-49N, خط طول: 020-17E, ارتفاع: 96 متر

مراقبة الطقس الحالي

تاريخ ووقت الإصدار 26 دقيقة قبل الساعة 12:30UTC
ريح 7 عقدة من الشمال, الاتجاه يتراوح بين الشمال الغربي و الشمال/الشمال الشرقي
درجة الحرارة 22°درجة مئوية
الرطوبة 43%
ضغط 1019 hPa
الرؤية 10 كم أو أكثر
الغيوم لا تقل 1500 م ولا وجود لمزنة ركامية السحاب الأسود

METAR: LYBE 191230Z 35007KT 310V030 CAVOK 22/09 Q1019 NOSIG

زمن: 14:56 (12:56 UTC)

توقعات

تاريخ ووقت الإصدار 1ساعة و 56 دقيقة قبل الساعة 11:00UTC
التوقعات صالحة من19 الساعة 12 UTC إلى 20 الساعة 12 UTC
ريح 6 عقدة من الشمال الغربي
الرؤية 10 كم أو أكثر
الغيوم لا تقل 1500 م ولا وجود لمزنة ركامية السحاب الأسود
مؤقت
من 19 الساعة 19 UTC إلى 20 الساعة 03 UTC
الرؤية: 4000 متر
غيوم قليلة على ارتفاع 3000 قدم, مزن ركامية عمودية.
غيوم متفرقة على ارتفاع 3300 قدم
زخات من الأمطار الخفيفة
مؤقت
من 20 الساعة 03 UTC إلى 20 الساعة 07 UTC
الرؤية: 2000 متر
غشاء

TAF: LYBE 191100Z 1912/2012 32006KT CAVOK TX22/1912Z TN10/2005Z TEMPO 1919/2003 4000 -SHRA FEW030TCU SCT033 TEMPO 2003/2007 2000 BR

أرصاد الطقس والتوقعات من أكثر من 4000 مطار (تقارير الطقس للمطار METAR والتنبؤ بالطقس بالمطارTAF).

المحطات المتاحة هي النقط الصفراء والحمراء على الخريطة.

حرك المؤشر فوق النقطة لمعرفة اسم المحطة.

ثم انقر لمعرفة أرصاد وتوقعات الطقس.

لتغيير الخارطة: اضغط على الأزرار الخضراء مع رمز الصليب الأسود للتكبير. على الزر الأخضر مع شرطة للتصغير، أو على الأسهم الخضراء للخرائط المجاورة.


METAR-TAF: